Time;durP1;ratioP1;P1;durP2;ratioP2;P2;SDS_P1;SDS_P2;PMS_P1;PMS_P2;Temp;Humidity;BMP_temperature;BMP_pressure;BME280_temperature;BME280_humidity;BME280_pressure;Samples;Min_cycle;Max_cycle;Signal;HPM_P1;HPM_P2
2023/06/17 00:00:00;;;;;;;8.73;5.45;;;19.00;72.40;;;;;;6256409;28;20046;-82
2023/06/17 00:03:03;;;;;;;7.72;4.95;;;19.20;72.80;;;;;;6248214;28;20056;-82
2023/06/17 00:06:05;;;;;;;6.20;4.28;;;19.30;72.60;;;;;;6247261;28;20399;-83
2023/06/17 00:09:07;;;;;;;7.00;4.85;;;19.40;72.60;;;;;;6254655;28;20407;-82
2023/06/17 00:12:12;;;;;;;7.20;4.70;;;19.40;72.60;;;;;;6257652;28;20052;-84
2023/06/17 00:15:16;;;;;;;11.32;4.90;;;19.40;72.30;;;;;;6244325;28;20057;-82
2023/06/17 00:18:22;;;;;;;7.32;5.10;;;19.30;72.10;;;;;;6232070;28;20053;-84
2023/06/17 00:21:24;;;;;;;8.93;4.85;;;19.10;72.40;;;;;;6251052;28;20096;-83
2023/06/17 00:24:25;;;;;;;7.10;4.78;;;19.00;72.90;;;;;;6265317;28;20217;-85
2023/06/17 00:27:27;;;;;;;8.85;4.90;;;18.70;73.30;;;;;;6276360;28;20051;-84
2023/06/17 00:30:29;;;;;;;7.65;5.45;;;18.70;73.80;;;;;;6258927;28;20053;-83
2023/06/17 00:33:32;;;;;;;7.55;4.78;;;18.60;74.30;;;;;;6251667;28;20503;-84
2023/06/17 00:36:35;;;;;;;8.85;5.13;;;18.80;74.30;;;;;;6274059;28;20055;-84
2023/06/17 00:39:36;;;;;;;7.07;4.63;;;18.80;74.00;;;;;;6260432;28;20128;-84
2023/06/17 00:42:39;;;;;;;7.20;4.72;;;18.60;74.30;;;;;;6252966;28;20056;-85
2023/06/17 00:45:41;;;;;;;8.95;5.38;;;18.40;75.00;;;;;;6251597;28;20045;-85
2023/06/17 00:48:44;;;;;;;9.23;5.85;;;18.30;75.30;;;;;;6252626;28;20411;-86
2023/06/17 00:51:46;;;;;;;7.93;4.95;;;18.30;76.00;;;;;;6256949;28;20049;-86
2023/06/17 00:54:48;;;;;;;7.63;4.80;;;18.40;75.40;;;;;;6252011;28;20380;-85
2023/06/17 00:57:53;;;;;;;8.57;5.07;;;18.50;75.40;;;;;;6252104;28;20050;-83
2023/06/17 01:00:54;;;;;;;7.20;5.10;;;18.50;75.30;;;;;;6251784;28;20053;-85
2023/06/17 01:03:59;;;;;;;7.38;5.20;;;18.60;74.90;;;;;;6253738;28;20042;-83
2023/06/17 01:07:23;;;;;;;8.02;5.00;;;18.50;74.90;;;;;;6266133;28;20068;-84
2023/06/17 01:10:33;;;;;;;7.38;5.50;;;18.40;75.10;;;;;;6227168;28;20076;-83
2023/06/17 01:13:36;;;;;;;8.10;5.47;;;18.20;75.80;;;;;;6239517;28;20190;-84
2023/06/17 01:16:42;;;;;;;9.52;5.03;;;18.10;76.20;;;;;;6254348;28;20057;-84
2023/06/17 01:19:48;;;;;;;9.50;5.03;;;17.80;76.70;;;;;;6251372;28;20510;-84
2023/06/17 01:22:54;;;;;;;7.05;4.80;;;17.70;77.50;;;;;;6251755;28;20049;-85
2023/06/17 01:25:58;;;;;;;6.55;4.95;;;17.80;77.90;;;;;;6263978;28;20544;-86
2023/06/17 01:29:00;;;;;;;9.07;4.82;;;17.70;77.50;;;;;;6262564;28;20056;-85
2023/06/17 01:32:04;;;;;;;8.77;5.40;;;17.50;78.40;;;;;;6253760;28;20045;-83
2023/06/17 01:35:13;;;;;;;9.63;5.43;;;17.40;79.10;;;;;;6262369;28;20049;-88
2023/06/17 01:38:22;;;;;;;9.20;5.90;;;17.30;79.30;;;;;;6251154;28;20404;-84
2023/06/17 01:41:32;;;;;;;12.55;6.63;;;17.40;79.70;;;;;;6252568;28;20061;-88
2023/06/17 01:44:36;;;;;;;11.05;6.10;;;17.50;79.40;;;;;;6254540;28;20057;-87
2023/06/17 01:47:38;;;;;;;6.97;5.15;;;17.60;79.30;;;;;;6257288;28;20049;-85
2023/06/17 01:50:39;;;;;;;7.70;5.20;;;17.60;79.00;;;;;;6251466;28;20052;-85
2023/06/17 01:53:41;;;;;;;9.88;6.00;;;17.60;78.70;;;;;;6251554;28;20049;-85
2023/06/17 01:56:44;;;;;;;9.45;5.85;;;17.60;79.00;;;;;;6250906;28;20060;-84
2023/06/17 01:59:46;;;;;;;9.95;5.40;;;17.50;79.40;;;;;;6260173;28;20049;-85
2023/06/17 02:02:48;;;;;;;9.75;5.40;;;17.50;80.20;;;;;;6286208;28;20059;-85
2023/06/17 02:05:50;;;;;;;8.90;5.43;;;17.60;79.70;;;;;;6265362;28;20043;-85
2023/06/17 02:08:53;;;;;;;7.88;5.28;;;17.60;79.60;;;;;;6256061;28;20057;-85
2023/06/17 02:11:56;;;;;;;7.17;5.10;;;17.60;79.90;;;;;;6252295;28;20053;-85
2023/06/17 02:14:59;;;;;;;8.00;5.35;;;17.60;79.80;;;;;;6252574;28;20049;-84
2023/06/17 02:18:01;;;;;;;10.05;5.22;;;17.50;79.30;;;;;;6230400;28;20053;-86
2023/06/17 02:21:03;;;;;;;7.40;5.05;;;17.50;78.90;;;;;;6241066;28;20057;-88
2023/06/17 02:24:06;;;;;;;6.93;4.82;;;17.60;79.20;;;;;;6253767;28;20053;-87
2023/06/17 02:27:09;;;;;;;8.52;4.85;;;17.60;78.80;;;;;;6278529;28;20052;-86
2023/06/17 02:30:13;;;;;;;8.15;5.70;;;17.50;79.10;;;;;;6266293;28;20503;-85
2023/06/17 02:33:17;;;;;;;8.10;5.90;;;17.60;79.60;;;;;;6252655;28;20049;-85
2023/06/17 02:36:19;;;;;;;7.05;4.80;;;17.50;79.20;;;;;;6251279;28;20109;-84
2023/06/17 02:39:21;;;;;;;8.10;5.10;;;17.50;79.20;;;;;;6252232;28;20049;-84
2023/06/17 02:42:24;;;;;;;9.02;4.95;;;17.50;79.80;;;;;;6251446;28;20053;-83
2023/06/17 02:45:26;;;;;;;9.73;4.97;;;17.50;80.20;;;;;;6252788;28;20056;-88
2023/06/17 02:48:28;;;;;;;8.40;5.40;;;17.40;80.20;;;;;;6255016;28;20046;-86
2023/06/17 02:51:30;;;;;;;9.20;5.00;;;17.40;80.40;;;;;;6251312;28;20049;-87
2023/06/17 02:54:32;;;;;;;7.07;4.85;;;17.40;80.80;;;;;;6257764;28;20071;-85
2023/06/17 02:57:35;;;;;;;8.35;4.88;;;17.30;80.40;;;;;;6278493;28;20159;-86
2023/06/17 03:00:37;;;;;;;9.75;4.80;;;17.40;80.70;;;;;;6277391;28;20080;-88
2023/06/17 03:03:41;;;;;;;7.95;5.05;;;17.40;80.60;;;;;;6278003;28;20075;-83
2023/06/17 03:06:44;;;;;;;;;;;17.40;80.10;;;;;;6252149;28;20053;-83
2023/06/17 03:09:46;;;;;;;7.65;4.60;;;17.40;80.20;;;;;;6249514;28;20319;-82
2023/06/17 03:12:50;;;;;;;7.30;4.80;;;17.30;79.70;;;;;;6250378;28;20068;-82
2023/06/17 03:15:53;;;;;;;8.20;4.80;;;17.00;80.70;;;;;;6250903;28;20061;-82
2023/06/17 03:18:55;;;;;;;7.50;4.80;;;16.80;81.70;;;;;;6251036;28;20143;-82
2023/06/17 03:21:57;;;;;;;7.05;4.65;;;16.70;82.50;;;;;;6251324;28;20056;-82
2023/06/17 03:24:58;;;;;;;6.43;4.68;;;16.70;83.10;;;;;;6262972;28;20053;-82
2023/06/17 03:28:02;;;;;;;7.55;4.95;;;16.80;83.10;;;;;;6250074;28;20045;-81
2023/06/17 03:31:05;;;;;;;7.47;4.82;;;16.80;82.30;;;;;;6248628;28;20049;-81
2023/06/17 03:34:07;;;;;;;6.97;4.65;;;16.80;82.20;;;;;;6248671;28;20041;-81
2023/06/17 03:37:09;;;;;;;7.03;4.80;;;16.80;82.40;;;;;;6250281;28;20128;-79
2023/06/17 03:40:13;;;;;;;7.07;4.80;;;16.80;82.60;;;;;;6249217;28;20052;-81
2023/06/17 03:43:16;;;;;;;8.60;4.78;;;16.90;82.50;;;;;;6249147;28;20517;-81
2023/06/17 03:46:19;;;;;;;7.15;5.07;;;16.80;83.00;;;;;;6262794;28;20050;-83
2023/06/17 03:49:21;;;;;;;7.43;5.22;;;16.70;83.00;;;;;;6248616;28;20179;-83
2023/06/17 03:52:23;;;;;;;6.43;4.78;;;16.80;83.20;;;;;;6253676;28;20415;-83
2023/06/17 03:55:25;;;;;;;8.35;4.88;;;16.70;83.00;;;;;;6249600;28;20045;-83
2023/06/17 03:58:29;;;;;;;6.90;4.50;;;16.80;83.60;;;;;;6254415;28;20049;-83
2023/06/17 04:01:31;;;;;;;8.45;4.90;;;16.90;83.40;;;;;;6254088;28;20481;-85
2023/06/17 04:04:34;;;;;;;7.57;4.50;;;16.90;82.70;;;;;;6252664;28;20049;-83
2023/06/17 04:07:38;;;;;;;10.02;5.07;;;16.90;82.80;;;;;;6253169;28;20388;-83
2023/06/17 04:10:41;;;;;;;7.40;4.70;;;16.70;83.00;;;;;;6248938;28;20046;-85
2023/06/17 04:13:44;;;;;;;6.83;4.53;;;16.60;83.50;;;;;;6233216;28;20167;-82
2023/06/17 04:16:46;;;;;;;8.10;4.70;;;16.40;84.30;;;;;;6252715;28;20052;-81
2023/06/17 04:19:48;;;;;;;8.32;5.32;;;16.40;85.20;;;;;;6266607;28;20045;-82
2023/06/17 04:22:49;;;;;;;8.07;5.07;;;16.50;85.30;;;;;;6254897;28;20056;-82
2023/06/17 04:25:51;;;;;;;7.43;4.95;;;16.40;85.20;;;;;;6251048;28;20057;-81
2023/06/17 04:28:55;;;;;;;7.60;4.70;;;16.50;85.40;;;;;;6252766;28;20052;-82
2023/06/17 04:31:56;;;;;;;8.45;5.18;;;16.60;85.20;;;;;;6270562;28;20411;-82
2023/06/17 04:34:58;;;;;;;7.35;4.88;;;16.60;85.30;;;;;;6275172;28;20044;-82
2023/06/17 04:38:02;;;;;;;7.70;4.90;;;16.50;86.20;;;;;;6252201;28;20045;-81
2023/06/17 04:41:05;;;;;;;8.30;4.80;;;16.50;86.30;;;;;;6252468;28;20131;-84
2023/06/17 04:44:08;;;;;;;8.38;5.22;;;16.70;86.20;;;;;;6251363;28;20061;-83
2023/06/17 04:47:12;;;;;;;7.15;4.90;;;16.70;86.30;;;;;;6261300;28;20052;-82
2023/06/17 04:50:16;;;;;;;7.55;5.25;;;16.80;86.40;;;;;;6253133;28;20046;-82
2023/06/17 04:53:18;;;;;;;7.55;5.20;;;16.80;86.50;;;;;;6252499;28;20056;-83
2023/06/17 04:56:20;;;;;;;8.30;5.40;;;16.90;86.20;;;;;;6250766;28;20045;-83
2023/06/17 04:59:24;;;;;;;7.75;5.00;;;16.90;86.30;;;;;;6251445;28;20041;-82
2023/06/17 05:02:25;;;;;;;8.07;5.07;;;16.90;86.30;;;;;;6263572;28;20045;-83
2023/06/17 05:05:27;;;;;;;7.85;5.50;;;16.90;86.20;;;;;;6260353;28;20045;-83
2023/06/17 05:08:29;;;;;;;8.48;5.22;;;16.90;85.50;;;;;;6269614;28;20049;-83
2023/06/17 05:11:31;;;;;;;6.63;4.70;;;17.00;86.70;;;;;;6258142;28;20480;-81
2023/06/17 05:14:34;;;;;;;8.18;5.50;;;17.00;86.70;;;;;;6267138;28;20048;-87
2023/06/17 05:17:37;;;;;;;13.20;5.68;;;17.00;85.70;;;;;;6277660;28;20077;-89
2023/06/17 05:20:39;;;;;;;9.95;4.95;;;17.10;85.00;;;;;;6268068;28;20050;-90
2023/06/17 05:23:40;;;;;;;8.40;4.90;;;17.10;85.40;;;;;;6278920;28;20274;-80
2023/06/17 05:26:42;;;;;;;7.88;5.10;;;17.10;85.70;;;;;;6267880;28;20046;-81
2023/06/17 05:29:45;;;;;;;6.57;4.70;;;17.20;86.10;;;;;;6253024;28;20055;-82
2023/06/17 05:32:47;;;;;;;8.90;5.45;;;17.20;86.90;;;;;;6259901;28;20053;-82
2023/06/17 05:35:49;;;;;;;7.47;4.68;;;17.20;87.40;;;;;;6247664;28;20108;-83
2023/06/17 05:38:51;;;;;;;8.13;5.07;;;17.20;88.40;;;;;;6266855;28;20489;-82
2023/06/17 05:41:53;;;;;;;10.48;5.50;;;17.30;88.60;;;;;;6254420;28;20049;-83
2023/06/17 05:44:56;;;;;;;8.30;5.03;;;17.40;87.90;;;;;;6267216;28;20045;-80
2023/06/17 05:47:58;;;;;;;9.07;4.85;;;17.40;88.00;;;;;;6250537;28;20083;-82
2023/06/17 05:51:00;;;;;;;8.95;5.15;;;17.50;88.00;;;;;;6264176;28;20479;-82
2023/06/17 05:54:02;;;;;;;9.50;5.40;;;17.50;85.80;;;;;;6257440;28;20407;-81
2023/06/17 05:57:04;;;;;;;7.47;5.45;;;17.60;85.30;;;;;;6253579;28;20046;-82
2023/06/17 06:00:10;;;;;;;10.05;5.80;;;17.60;84.60;;;;;;6259145;28;20049;-80
2023/06/17 06:03:12;;;;;;;8.55;5.78;;;17.60;83.90;;;;;;6254535;28;20051;-81
2023/06/17 06:06:14;;;;;;;7.85;5.75;;;17.60;83.10;;;;;;6264786;28;20053;-81
2023/06/17 06:09:15;;;;;;;8.15;5.60;;;17.70;82.20;;;;;;6252617;28;20045;-82
2023/06/17 06:12:17;;;;;;;7.80;5.90;;;17.70;83.40;;;;;;6272332;28;20407;-82
2023/06/17 06:15:20;;;;;;;9.07;5.82;;;17.60;83.10;;;;;;6272298;28;20056;-81
2023/06/17 06:18:22;;;;;;;7.97;5.13;;;17.70;82.00;;;;;;6264290;28;20056;-83
2023/06/17 06:21:24;;;;;;;9.77;5.07;;;17.70;82.40;;;;;;6254563;28;20045;-78
2023/06/17 06:24:26;;;;;;;9.23;5.40;;;17.70;82.90;;;;;;6249095;28;20482;-80
2023/06/17 06:27:28;;;;;;;8.95;5.63;;;17.80;81.90;;;;;;6248944;28;20053;-79
2023/06/17 06:30:31;;;;;;;10.93;5.43;;;17.90;81.50;;;;;;6256852;28;20037;-79
2023/06/17 06:33:35;;;;;;;9.00;5.72;;;17.80;81.40;;;;;;6256600;28;20139;-79
2023/06/17 06:36:37;;;;;;;10.85;6.30;;;17.80;82.00;;;;;;6247726;28;20041;-81
2023/06/17 06:39:38;;;;;;;9.88;6.30;;;17.90;82.00;;;;;;6246436;28;20056;-80
2023/06/17 06:42:41;;;;;;;12.48;6.53;;;18.00;82.20;;;;;;6260823;28;20569;-80
2023/06/17 06:45:44;;;;;;;11.70;6.40;;;18.10;82.30;;;;;;6255147;28;20045;-80
2023/06/17 06:48:46;;;;;;;9.93;5.72;;;18.30;83.20;;;;;;6245894;28;20048;-80
2023/06/17 06:51:48;;;;;;;10.27;5.68;;;18.40;83.10;;;;;;6259604;28;20045;-80
2023/06/17 06:54:50;;;;;;;9.40;5.27;;;18.50;81.90;;;;;;6248772;28;20068;-82
2023/06/17 06:57:52;;;;;;;8.48;5.28;;;18.60;82.20;;;;;;6261125;28;20121;-81
2023/06/17 07:00:55;;;;;;;7.95;5.63;;;18.60;82.70;;;;;;6245292;28;20439;-83
2023/06/17 07:03:57;;;;;;;10.30;6.10;;;18.70;82.30;;;;;;6261753;28;20049;-82
2023/06/17 07:06:59;;;;;;;8.48;5.30;;;18.80;81.70;;;;;;6268807;28;20060;-82
2023/06/17 07:10:01;;;;;;;6.90;5.30;;;18.80;82.10;;;;;;6245839;28;20097;-83
2023/06/17 07:13:03;;;;;;;8.13;5.68;;;18.90;82.30;;;;;;6264823;28;20057;-82
2023/06/17 07:16:06;;;;;;;8.43;5.60;;;19.00;82.20;;;;;;6247599;28;20049;-79
2023/06/17 07:19:08;;;;;;;9.20;5.88;;;19.10;82.40;;;;;;6245934;28;20045;-82
2023/06/17 07:22:10;;;;;;;10.57;6.13;;;19.20;81.60;;;;;;6234374;28;20050;-81
2023/06/17 07:25:12;;;;;;;10.07;5.70;;;19.30;81.40;;;;;;6247738;28;20067;-79
2023/06/17 07:28:14;;;;;;;9.73;5.95;;;19.40;81.90;;;;;;6248107;28;20064;-81
2023/06/17 07:31:17;;;;;;;8.77;5.28;;;19.40;81.60;;;;;;6250230;28;20494;-82
2023/06/17 07:34:19;;;;;;;8.43;6.10;;;19.50;82.70;;;;;;6246223;28;20064;-82
2023/06/17 07:37:21;;;;;;;10.88;5.63;;;19.60;80.70;;;;;;6247833;28;20045;-83
2023/06/17 07:40:23;;;;;;;7.53;5.80;;;19.70;81.50;;;;;;6247456;28;20046;-83
2023/06/17 07:43:24;;;;;;;8.48;5.85;;;19.70;79.90;;;;;;6253045;28;20049;-84
2023/06/17 07:46:28;;;;;;;8.93;5.38;;;19.80;79.60;;;;;;6260779;28;20049;-84
2023/06/17 07:49:31;;;;;;;7.50;4.65;;;19.80;77.60;;;;;;6247130;28;20407;-84
2023/06/17 07:52:35;;;;;;;8.43;5.47;;;19.90;78.50;;;;;;6247452;28;20113;-82
2023/06/17 07:55:37;;;;;;;7.30;4.97;;;20.10;78.30;;;;;;6255546;28;20180;-81
2023/06/17 07:58:39;;;;;;;8.15;5.57;;;20.20;76.90;;;;;;6246923;28;20049;-83
2023/06/17 08:01:43;;;;;;;9.27;5.25;;;20.20;77.00;;;;;;6247158;28;20042;-82
2023/06/17 08:04:45;;;;;;;9.30;5.03;;;20.30;77.20;;;;;;6246696;28;20495;-82
2023/06/17 08:07:47;;;;;;;8.07;5.18;;;20.40;75.70;;;;;;6247343;28;20049;-81
2023/06/17 08:10:49;;;;;;;9.88;5.65;;;20.50;75.70;;;;;;6247067;28;20049;-80
2023/06/17 08:13:51;;;;;;;7.68;5.47;;;20.50;75.20;;;;;;6246543;28;20049;-80
2023/06/17 08:16:55;;;;;;;10.35;5.20;;;20.60;74.10;;;;;;6247016;28;20041;-78
2023/06/17 08:19:56;;;;;;;14.68;8.00;;;20.70;74.20;;;;;;6254918;28;20499;-82
2023/06/17 08:22:58;;;;;;;8.55;4.65;;;20.80;73.30;;;;;;6249091;28;21108;-71
2023/06/17 08:26:00;;;;;;;9.05;5.43;;;20.90;72.80;;;;;;6247801;28;20049;-72
2023/06/17 08:29:02;;;;;;;8.52;5.18;;;21.00;71.30;;;;;;6270229;28;20045;-70
2023/06/17 08:32:06;;;;;;;8.38;5.03;;;21.10;69.30;;;;;;6254389;28;20053;-72
2023/06/17 08:35:08;;;;;;;8.25;4.72;;;21.20;68.60;;;;;;6241371;28;20045;-73
2023/06/17 08:38:10;;;;;;;9.48;5.00;;;21.20;67.80;;;;;;6262183;28;20506;-73
2023/06/17 08:41:12;;;;;;;8.20;5.25;;;21.40;68.00;;;;;;6267914;28;20130;-73
2023/06/17 08:44:15;;;;;;;7.75;4.43;;;21.50;66.70;;;;;;6275815;28;20096;-73
2023/06/17 08:47:18;;;;;;;7.43;4.97;;;21.50;66.00;;;;;;6276132;28;20049;-73
2023/06/17 08:50:20;;;;;;;8.02;4.75;;;21.70;65.80;;;;;;6276315;28;20052;-73
2023/06/17 08:53:23;;;;;;;8.32;5.20;;;21.80;65.00;;;;;;6275948;28;20049;-72
2023/06/17 08:56:24;;;;;;;8.77;5.00;;;21.80;64.90;;;;;;6276190;28;20041;-73
2023/06/17 08:59:26;;;;;;;7.38;4.63;;;22.00;65.40;;;;;;6275834;28;20658;-72
2023/06/17 09:02:30;;;;;;;8.45;4.90;;;22.10;63.70;;;;;;6275651;28;20049;-72
2023/06/17 09:05:32;;;;;;;7.30;4.85;;;22.10;62.30;;;;;;6275717;28;20430;-72
2023/06/17 09:08:34;;;;;;;11.25;4.75;;;22.20;61.30;;;;;;6275645;28;20052;-72
2023/06/17 09:11:36;;;;;;;6.95;4.97;;;22.30;62.40;;;;;;6275812;28;20048;-72
2023/06/17 09:14:38;;;;;;;8.25;5.03;;;22.40;61.10;;;;;;6275526;28;20092;-73
2023/06/17 09:17:44;;;;;;;9.48;4.68;;;22.50;60.00;;;;;;6275584;28;20053;-73
2023/06/17 09:20:51;;;;;;;9.10;4.93;;;22.60;59.00;;;;;;6275497;28;20044;-73
2023/06/17 09:23:55;;;;;;;9.63;4.75;;;22.60;59.20;;;;;;6275549;28;20045;-73
2023/06/17 09:26:57;;;;;;;7.03;4.47;;;22.70;57.90;;;;;;6275154;28;20379;-73
2023/06/17 09:30:10;;;;;;;6.82;4.55;;;22.80;57.90;;;;;;6238614;28;20041;-73
2023/06/17 09:33:21;;;;;;;7.82;4.70;;;22.90;57.60;;;;;;6225640;28;20050;-72
2023/06/17 09:36:24;;;;;;;8.68;5.10;;;22.90;56.40;;;;;;6225863;28;20050;-72
2023/06/17 09:39:30;;;;;;;6.53;4.37;;;23.00;56.80;;;;;;6225750;28;20058;-72
2023/06/17 09:42:32;;;;;;;6.18;3.90;;;23.00;54.80;;;;;;6225826;28;20312;-72
2023/06/17 09:45:35;;;;;;;7.57;4.10;;;23.10;54.30;;;;;;6225673;28;20058;-72
2023/06/17 09:48:41;;;;;;;6.13;4.30;;;23.20;54.90;;;;;;6225778;28;20069;-72
2023/06/17 09:51:44;;;;;;;6.85;4.22;;;23.30;55.00;;;;;;6225369;28;20089;-74
2023/06/17 09:54:46;;;;;;;6.77;4.20;;;23.40;54.40;;;;;;6225260;28;20407;-72
2023/06/17 09:57:53;;;;;;;6.37;4.20;;;23.50;54.10;;;;;;6225436;28;20042;-72
2023/06/17 10:00:57;;;;;;;8.32;4.20;;;23.60;54.60;;;;;;6225536;28;20050;-72
2023/06/17 10:04:00;;;;;;;7.38;4.50;;;23.70;53.30;;;;;;6225277;28;20057;-72
2023/06/17 10:07:03;;;;;;;7.35;4.18;;;23.80;54.40;;;;;;6225032;28;20503;-72
2023/06/17 10:10:08;;;;;;;6.75;4.15;;;23.70;54.60;;;;;;6225167;28;20049;-72
2023/06/17 10:13:10;;;;;;;7.07;4.25;;;23.70;53.80;;;;;;6224889;28;20523;-72
2023/06/17 10:16:15;;;;;;;6.95;4.35;;;23.80;54.70;;;;;;6224979;28;20057;-72
2023/06/17 10:19:23;;;;;;;7.00;4.45;;;23.80;54.00;;;;;;6224746;28;20072;-72
2023/06/17 10:22:27;;;;;;;7.47;4.43;;;23.80;54.10;;;;;;6224911;28;20527;-72
2023/06/17 10:25:29;;;;;;;7.30;4.13;;;23.90;53.30;;;;;;6224589;28;20400;-72
2023/06/17 10:28:45;;;;;;;5.63;3.97;;;24.00;52.00;;;;;;6224729;28;20057;-72
2023/06/17 10:31:47;;;;;;;9.27;4.03;;;24.00;52.50;;;;;;6224562;28;20081;-73
2023/06/17 10:35:11;;;;;;;7.07;3.90;;;24.20;53.00;;;;;;6224441;28;20049;-72
2023/06/17 10:38:29;;;;;;;6.90;4.45;;;24.30;53.30;;;;;;6224423;28;20127;-72
2023/06/17 10:42:00;;;;;;;6.72;4.53;;;24.30;51.80;;;;;;6224172;28;20488;-72
2023/06/17 10:45:13;;;;;;;8.88;4.80;;;24.30;54.40;;;;;;6224388;28;20054;-72
2023/06/17 10:48:16;;;;;;;8.13;4.80;;;24.30;55.10;;;;;;6224148;28;20057;-72
2023/06/17 10:51:23;;;;;;;6.85;4.70;;;24.30;55.60;;;;;;6224237;28;20046;-72
2023/06/17 10:54:31;;;;;;;7.15;4.75;;;24.40;55.70;;;;;;6223995;28;20203;-72
2023/06/17 10:57:35;;;;;;;8.50;4.65;;;24.30;55.00;;;;;;6224298;28;20169;-71
2023/06/17 11:00:37;;;;;;;7.25;5.10;;;24.30;54.80;;;;;;6224002;28;20080;-71
2023/06/17 11:03:40;;;;;;;7.70;4.90;;;24.30;55.40;;;;;;6223646;28;20072;-72
2023/06/17 11:06:45;;;;;;;8.18;4.90;;;24.40;55.20;;;;;;6223861;28;20136;-72
2023/06/17 11:09:48;;;;;;;7.30;4.32;;;24.40;53.70;;;;;;6223729;28;20427;-72
2023/06/17 11:12:50;;;;;;;6.32;4.07;;;24.50;54.40;;;;;;6223762;28;20050;-72
2023/06/17 11:15:56;;;;;;;8.57;4.65;;;24.70;53.80;;;;;;6223537;28;20357;-72
2023/06/17 11:18:59;;;;;;;8.02;4.43;;;24.70;52.90;;;;;;6223763;28;20058;-72
2023/06/17 11:22:03;;;;;;;7.38;4.38;;;24.70;52.70;;;;;;6223517;28;20054;-72
2023/06/17 11:25:06;;;;;;;6.95;4.80;;;24.60;52.40;;;;;;6224182;28;20053;-72
2023/06/17 11:28:08;;;;;;;;;;;24.70;53.30;;;;;;6224036;28;20045;-72
2023/06/17 11:31:10;;;;;;;7.13;5.03;;;24.70;53.00;;;;;;6248060;28;19939;-72
2023/06/17 11:34:13;;;;;;;8.77;5.40;;;24.80;53.00;;;;;;6247688;28;20053;-72
2023/06/17 11:37:17;;;;;;;;;;;24.90;52.60;;;;;;6248425;28;20128;-71
2023/06/17 11:40:18;;;;;;;8.48;5.10;;;25.00;53.10;;;;;;6247844;28;19921;-72
2023/06/17 11:43:24;;;;;;;7.82;4.78;;;25.00;52.20;;;;;;6247642;28;20056;-72
2023/06/17 11:46:27;;;;;;;6.80;4.50;;;25.10;51.40;;;;;;6247740;28;20049;-72
2023/06/17 11:49:29;;;;;;;6.45;4.78;;;25.30;51.50;;;;;;6247702;28;20352;-73
2023/06/17 11:52:32;;;;;;;9.57;4.93;;;25.40;52.50;;;;;;6247723;28;20053;-72
2023/06/17 11:55:35;;;;;;;;;;;25.40;49.60;;;;;;6248199;28;20046;-72
2023/06/17 11:58:40;;;;;;;9.05;4.80;;;25.50;50.10;;;;;;6247482;28;19921;-73
2023/06/17 12:01:42;;;;;;;8.00;4.68;;;25.60;50.70;;;;;;6247724;28;20053;-73
2023/06/17 12:04:45;;;;;;;8.00;4.60;;;25.60;51.00;;;;;;6247506;28;20056;-73
2023/06/17 12:07:48;;;;;;;7.63;4.82;;;25.60;50.50;;;;;;6247350;28;20052;-72
2023/06/17 12:10:51;;;;;;;8.52;4.82;;;25.70;50.50;;;;;;6247523;28;20052;-72
2023/06/17 12:13:54;;;;;;;8.38;4.75;;;25.80;51.10;;;;;;6247292;28;20045;-74
2023/06/17 12:16:57;;;;;;;7.45;4.88;;;26.00;51.30;;;;;;6249593;28;20685;-73
2023/06/17 12:20:02;;;;;;;7.78;4.70;;;26.20;51.30;;;;;;6252186;28;20045;-72
2023/06/17 12:23:05;;;;;;;8.30;4.78;;;26.40;50.20;;;;;;6252260;28;20049;-73
2023/06/17 12:26:09;;;;;;;7.53;4.78;;;26.40;49.60;;;;;;6251897;28;20060;-73
2023/06/17 12:29:13;;;;;;;7.43;4.50;;;26.40;49.70;;;;;;6252143;28;20057;-72
2023/06/17 12:32:15;;;;;;;6.88;4.70;;;26.40;49.20;;;;;;6252026;28;20506;-73
2023/06/17 12:35:17;;;;;;;7.72;4.70;;;26.30;49.80;;;;;;6252028;28;20065;-73
2023/06/17 12:38:21;;;;;;;7.65;5.00;;;26.20;49.10;;;;;;6251806;28;20046;-73
2023/06/17 12:41:23;;;;;;;7.18;4.53;;;26.10;50.70;;;;;;6251986;28;20053;-72
2023/06/17 12:44:25;;;;;;;7.18;4.50;;;26.10;50.00;;;;;;6251387;28;20049;-72
2023/06/17 12:47:27;;;;;;;6.30;4.27;;;26.30;49.20;;;;;;6251701;28;20045;-73
2023/06/17 12:50:29;;;;;;;8.02;4.80;;;26.30;49.20;;;;;;6251558;28;20045;-72
2023/06/17 12:53:32;;;;;;;6.88;4.63;;;26.60;49.80;;;;;;6251268;28;20519;-73
2023/06/17 12:56:34;;;;;;;;;;;26.70;47.70;;;;;;6251963;28;20045;-73
2023/06/17 12:59:36;;;;;;;9.63;4.43;;;26.90;47.50;;;;;;6251243;28;19928;-73
2023/06/17 13:02:38;;;;;;;6.40;4.28;;;27.10;47.90;;;;;;6251398;28;20052;-73
2023/06/17 13:05:39;;;;;;;7.90;4.60;;;27.30;47.20;;;;;;6251041;28;20061;-72
2023/06/17 13:08:43;;;;;;;7.72;4.30;;;27.30;47.00;;;;;;6251181;28;20049;-73
2023/06/17 13:11:44;;;;;;;8.25;4.70;;;27.10;46.00;;;;;;6250882;28;20052;-73
2023/06/17 13:14:47;;;;;;;7.85;4.72;;;27.30;47.10;;;;;;6250706;28;20053;-72
2023/06/17 13:17:49;;;;;;;6.18;4.10;;;27.40;46.40;;;;;;6250997;28;20083;-73
2023/06/17 13:20:51;;;;;;;7.60;4.05;;;27.50;45.80;;;;;;6250726;28;20052;-73
2023/06/17 13:23:55;;;;;;;6.70;4.50;;;27.70;46.50;;;;;;6250962;28;20046;-72
2023/06/17 13:26:57;;;;;;;6.68;4.13;;;27.80;45.50;;;;;;6250262;28;20380;-73
2023/06/17 13:29:59;;;;;;;8.45;4.50;;;28.00;46.20;;;;;;6249590;28;20049;-72
2023/06/17 13:33:01;;;;;;;6.65;3.88;;;28.30;45.70;;;;;;6251003;28;20053;-73
2023/06/17 13:36:03;;;;;;;7.85;4.05;;;28.50;44.20;;;;;;6250489;28;20057;-73
2023/06/17 13:39:06;;;;;;;7.82;4.43;;;28.50;45.80;;;;;;6250351;28;20057;-73
2023/06/17 13:42:08;;;;;;;7.93;4.13;;;28.30;44.80;;;;;;6250304;28;20056;-73
2023/06/17 13:45:11;;;;;;;8.50;4.23;;;28.40;45.30;;;;;;6250307;28;20057;-72
2023/06/17 13:48:13;;;;;;;6.60;4.10;;;28.50;45.30;;;;;;6250362;28;20136;-72
2023/06/17 13:51:15;;;;;;;5.88;4.10;;;28.50;45.30;;;;;;6250070;28;20053;-72
2023/06/17 13:54:20;;;;;;;6.53;4.35;;;28.30;45.00;;;;;;6250139;28;20052;-72
2023/06/17 13:57:22;;;;;;;6.70;4.35;;;28.20;45.00;;;;;;6250389;28;20060;-73
2023/06/17 14:00:24;;;;;;;6.15;4.25;;;28.40;44.70;;;;;;6249854;28;20136;-73
2023/06/17 14:03:26;;;;;;;7.25;4.32;;;28.50;43.90;;;;;;6249751;28;20128;-72
2023/06/17 14:06:28;;;;;;;6.85;4.03;;;28.50;44.20;;;;;;6249724;28;20048;-72
2023/06/17 14:09:31;;;;;;;6.28;4.30;;;28.70;46.50;;;;;;6249795;28;20053;-73
2023/06/17 14:12:33;;;;;;;6.15;3.95;;;28.90;45.00;;;;;;6249647;28;20053;-73
2023/06/17 14:15:35;;;;;;;6.43;4.13;;;29.00;44.90;;;;;;6249501;28;20159;-73
2023/06/17 14:18:37;;;;;;;7.13;4.20;;;29.20;44.50;;;;;;6249244;28;20042;-72
2023/06/17 14:21:38;;;;;;;6.78;4.00;;;29.30;43.90;;;;;;6249473;28;20056;-73
2023/06/17 14:24:42;;;;;;;6.00;4.00;;;29.50;43.00;;;;;;6249219;28;20042;-73
2023/06/17 14:27:44;;;;;;;6.72;3.95;;;29.60;43.80;;;;;;6249332;28;20041;-72
2023/06/17 14:30:48;;;;;;;6.07;3.87;;;29.70;44.30;;;;;;6249203;28;20487;-73
2023/06/17 14:33:50;;;;;;;6.75;3.67;;;29.70;43.60;;;;;;6248959;28;20053;-72
2023/06/17 14:36:51;;;;;;;7.33;3.90;;;29.80;43.30;;;;;;6249165;28;20049;-73
2023/06/17 14:39:55;;;;;;;6.25;3.70;;;29.60;42.30;;;;;;6248127;28;20053;-73
2023/06/17 14:42:57;;;;;;;6.82;3.85;;;29.70;45.00;;;;;;6248847;28;20049;-73
2023/06/17 14:45:58;;;;;;;5.93;3.55;;;29.70;42.70;;;;;;6248933;28;20101;-72
2023/06/17 14:49:00;;;;;;;5.37;3.87;;;29.80;43.00;;;;;;6248866;28;20052;-72
2023/06/17 14:52:02;;;;;;;7.20;3.78;;;29.80;43.00;;;;;;6248845;28;20045;-72
2023/06/17 14:55:07;;;;;;;7.60;4.00;;;29.70;41.70;;;;;;6248755;28;20057;-73
2023/06/17 14:58:09;;;;;;;5.47;3.35;;;29.70;41.30;;;;;;6248591;28;20155;-73
2023/06/17 15:01:11;;;;;;;8.63;5.28;;;30.00;41.80;;;;;;6248558;28;20049;-73
2023/06/17 15:04:13;;;;;;;8.00;4.07;;;29.60;41.90;;;;;;6248307;28;20053;-73
2023/06/17 15:07:15;;;;;;;5.90;3.90;;;29.50;41.90;;;;;;6248578;28;20045;-73
2023/06/17 15:10:18;;;;;;;6.03;4.10;;;29.50;42.90;;;;;;6248454;28;20049;-73
2023/06/17 15:13:20;;;;;;;5.57;3.55;;;29.20;43.70;;;;;;6248541;28;20478;-73
2023/06/17 15:16:22;;;;;;;6.10;3.90;;;29.40;42.40;;;;;;6248438;28;20053;-72
2023/06/17 15:19:24;;;;;;;6.72;4.00;;;29.40;42.30;;;;;;6248168;28;20042;-73
2023/06/17 15:22:26;;;;;;;5.33;3.53;;;29.60;42.00;;;;;;6248261;28;20333;-73
2023/06/17 15:25:29;;;;;;;6.50;3.92;;;29.70;42.90;;;;;;6247986;28;20057;-72
2023/06/17 15:28:31;;;;;;;8.35;4.00;;;29.90;41.10;;;;;;6246365;28;20053;-72
2023/06/17 15:31:34;;;;;;;5.72;3.60;;;29.70;41.00;;;;;;6247861;28;20064;-73
2023/06/17 15:34:36;;;;;;;5.40;4.00;;;29.60;42.10;;;;;;6247820;28;20057;-73
2023/06/17 15:37:37;;;;;;;6.35;4.28;;;29.60;42.80;;;;;;6247846;28;20049;-72
2023/06/17 15:40:40;;;;;;;6.70;3.67;;;29.30;42.00;;;;;;6247945;28;20052;-72
2023/06/17 15:43:42;;;;;;;6.00;4.03;;;29.30;42.10;;;;;;6247542;28;20470;-72
2023/06/17 15:46:44;;;;;;;7.90;4.30;;;29.30;41.30;;;;;;6247585;28;20388;-72
2023/06/17 15:49:46;;;;;;;6.13;4.07;;;29.80;44.20;;;;;;6248371;28;20045;-72
2023/06/17 15:52:48;;;;;;;5.78;3.70;;;29.50;42.10;;;;;;6255660;28;20052;-73